sensor_id;sensor_type;location;lat;lon;timestamp;pressure;altitude;pressure_sealevel;temperature;humidity
24868;BME280;12941;48.698;9.310;2024-01-15T00:01:04;96864.20000000001;;;3.58;55.172
24868;BME280;12941;48.698;9.310;2024-01-15T00:02:09;96856;;;3.53;54.846
24868;BME280;12941;48.698;9.310;2024-01-15T00:03:14;96861.40000000001;;;3.44;54.856
24868;BME280;12941;48.698;9.310;2024-01-15T00:04:19;96853.5;;;3.33;55.149
24868;BME280;12941;48.698;9.310;2024-01-15T00:05:24;96855.5;;;3.25;55.309
24868;BME280;12941;48.698;9.310;2024-01-15T00:06:24;96860;;;3.18;55.649
24868;BME280;12941;48.698;9.310;2024-01-15T00:07:29;96857.7;;;3.14;55.813
24868;BME280;12941;48.698;9.310;2024-01-15T00:08:29;96854.6;;;3.06;55.782
24868;BME280;12941;48.698;9.310;2024-01-15T00:09:35;96848.8;;;3.03;55.885
24868;BME280;12941;48.698;9.310;2024-01-15T00:10:34;96858.90000000001;;;3.03;55.97
24868;BME280;12941;48.698;9.310;2024-01-15T00:11:39;96853.9;;;3.03;56.033
24868;BME280;12941;48.698;9.310;2024-01-15T00:12:39;96849.7;;;3.02;55.989
24868;BME280;12941;48.698;9.310;2024-01-15T00:13:44;96844.6;;;3.02;56.032
24868;BME280;12941;48.698;9.310;2024-01-15T00:14:44;96843.4;;;2.92;56.124
24868;BME280;12941;48.698;9.310;2024-01-15T00:15:44;96841.7;;;2.91;56.313
24868;BME280;12941;48.698;9.310;2024-01-15T00:16:50;96846.90000000001;;;2.88;56.469
24868;BME280;12941;48.698;9.310;2024-01-15T00:17:49;96849.90000000001;;;2.76;56.453
24868;BME280;12941;48.698;9.310;2024-01-15T00:18:53;96852.5;;;2.76;56.665
24868;BME280;12941;48.698;9.310;2024-01-15T00:19:54;96860.2;;;2.73;56.703
24868;BME280;12941;48.698;9.310;2024-01-15T00:20:54;96847.79999999999;;;2.67;56.758
24868;BME280;12941;48.698;9.310;2024-01-15T00:21:59;96839.5;;;2.62;56.879
24868;BME280;12941;48.698;9.310;2024-01-15T00:22:59;96848.2;;;2.58;57.18
24868;BME280;12941;48.698;9.310;2024-01-15T00:23:59;96840.59999999999;;;2.56;57.264
24868;BME280;12941;48.698;9.310;2024-01-15T00:25:05;96847.7;;;2.47;57.461
24868;BME280;12941;48.698;9.310;2024-01-15T00:26:10;96847.79999999999;;;2.45;57.692
24868;BME280;12941;48.698;9.310;2024-01-15T00:27:10;96846.8;;;2.49;57.856
24868;BME280;12941;48.698;9.310;2024-01-15T00:28:15;96852;;;2.45;57.956
24868;BME280;12941;48.698;9.310;2024-01-15T00:29:20;96850.5;;;2.41;58.173
24868;BME280;12941;48.698;9.310;2024-01-15T00:30:24;96847.90000000001;;;2.42;58.302
24868;BME280;12941;48.698;9.310;2024-01-15T00:31:24;96836.90000000001;;;2.45;58.252
24868;BME280;12941;48.698;9.310;2024-01-15T00:32:25;96843.6;;;2.46;58.255
24868;BME280;12941;48.698;9.310;2024-01-15T00:33:25;96843.6;;;2.46;58.371
24868;BME280;12941;48.698;9.310;2024-01-15T00:34:25;96840.3;;;2.44;58.474
24868;BME280;12941;48.698;9.310;2024-01-15T00:35:30;96834.5;;;2.42;58.46
24868;BME280;12941;48.698;9.310;2024-01-15T00:36:35;96843.6;;;2.44;58.453
24868;BME280;12941;48.698;9.310;2024-01-15T00:37:35;96835.2;;;2.44;58.495
24868;BME280;12941;48.698;9.310;2024-01-15T00:38:35;96839.5;;;2.42;58.502
24868;BME280;12941;48.698;9.310;2024-01-15T00:39:35;96838.8;;;2.4;58.616
24868;BME280;12941;48.698;9.310;2024-01-15T00:40:40;96833.6;;;2.43;58.619
24868;BME280;12941;48.698;9.310;2024-01-15T00:41:40;96836.2;;;2.41;58.629
24868;BME280;12941;48.698;9.310;2024-01-15T00:42:45;96836.1;;;2.43;58.63
24868;BME280;12941;48.698;9.310;2024-01-15T00:43:45;96842.9;;;2.41;58.659
24868;BME280;12941;48.698;9.310;2024-01-15T00:44:50;96842.8;;;2.44;58.602
24868;BME280;12941;48.698;9.310;2024-01-15T00:45:50;96840.4;;;2.41;58.521
24868;BME280;12941;48.698;9.310;2024-01-15T00:46:50;96838.8;;;2.4;58.553
24868;BME280;12941;48.698;9.310;2024-01-15T00:47:55;96837.09999999999;;;2.39;58.656
24868;BME280;12941;48.698;9.310;2024-01-15T00:49:00;96847.2;;;2.39;58.805
24868;BME280;12941;48.698;9.310;2024-01-15T00:50:05;96837.90000000001;;;2.39;58.816
24868;BME280;12941;48.698;9.310;2024-01-15T00:51:10;96838.59999999999;;;2.43;58.757
24868;BME280;12941;48.698;9.310;2024-01-15T00:52:10;96848.7;;;2.43;58.693
24868;BME280;12941;48.698;9.310;2024-01-15T00:53:15;96847.1;;;2.42;58.767
24868;BME280;12941;48.698;9.310;2024-01-15T00:54:15;96848.7;;;2.43;58.757
24868;BME280;12941;48.698;9.310;2024-01-15T00:55:20;96859;;;2.4;58.7
24868;BME280;12941;48.698;9.310;2024-01-15T00:56:20;96854.2;;;2.33;58.756
24868;BME280;12941;48.698;9.310;2024-01-15T00:57:25;96853.9;;;2.4;58.722
24868;BME280;12941;48.698;9.310;2024-01-15T00:58:25;96848.1;;;2.38;58.804
24868;BME280;12941;48.698;9.310;2024-01-15T00:59:30;96850.5;;;2.41;58.808
24868;BME280;12941;48.698;9.310;2024-01-15T01:00:35;96857.1;;;2.45;58.76
24868;BME280;12941;48.698;9.310;2024-01-15T01:01:40;96858.6;;;2.49;58.649
24868;BME280;12941;48.698;9.310;2024-01-15T01:02:40;96851;;;2.5;58.663
24868;BME280;12941;48.698;9.310;2024-01-15T01:03:45;96856.8;;;2.54;58.434
24868;BME280;12941;48.698;9.310;2024-01-15T01:04:50;96856.7;;;2.55;58.415
24868;BME280;12941;48.698;9.310;2024-01-15T01:05:50;96856.5;;;2.6;58.316
24868;BME280;12941;48.698;9.310;2024-01-15T01:06:55;96858.3;;;2.58;58.28
24868;BME280;12941;48.698;9.310;2024-01-15T01:07:55;96854.7;;;2.62;58.213
24868;BME280;12941;48.698;9.310;2024-01-15T01:08:55;96853.8;;;2.63;58.183
24868;BME280;12941;48.698;9.310;2024-01-15T01:10:00;96858;;;2.64;58.162
24868;BME280;12941;48.698;9.310;2024-01-15T01:11:00;96852.09999999999;;;2.65;58.11
24868;BME280;12941;48.698;9.310;2024-01-15T01:12:00;96846.90000000001;;;2.66;58.092
24868;BME280;12941;48.698;9.310;2024-01-15T01:13:00;96844.4;;;2.68;58.041
24868;BME280;12941;48.698;9.310;2024-01-15T01:14:05;96839.3;;;2.68;57.945
24868;BME280;12941;48.698;9.310;2024-01-15T01:15:05;96843.4;;;2.72;57.898
24868;BME280;12941;48.698;9.310;2024-01-15T01:16:10;96842.5;;;2.73;57.868
24868;BME280;12941;48.698;9.310;2024-01-15T01:17:10;96837.3;;;2.75;57.795
24868;BME280;12941;48.698;9.310;2024-01-15T01:18:15;96841.7;;;2.71;57.939
24868;BME280;12941;48.698;9.310;2024-01-15T01:19:15;96840.8;;;2.72;57.92
24868;BME280;12941;48.698;9.310;2024-01-15T01:20:20;96835.7;;;2.74;57.953
24868;BME280;12941;48.698;9.310;2024-01-15T01:21:20;96834;;;2.74;57.996
24868;BME280;12941;48.698;9.310;2024-01-15T01:22:25;96840.7;;;2.75;57.955
24868;BME280;12941;48.698;9.310;2024-01-15T01:23:25;96841.4;;;2.79;57.917
24868;BME280;12941;48.698;9.310;2024-01-15T01:24:25;96836.3;;;2.79;57.885
24868;BME280;12941;48.698;9.310;2024-01-15T01:25:30;96845.6;;;2.78;57.801
24868;BME280;12941;48.698;9.310;2024-01-15T01:26:30;96838.9;;;2.79;57.875
24868;BME280;12941;48.698;9.310;2024-01-15T01:27:30;96841.3;;;2.8;57.847
24868;BME280;12941;48.698;9.310;2024-01-15T01:28:30;96845.6;;;2.78;57.896
24868;BME280;12941;48.698;9.310;2024-01-15T01:29:35;96842.3;;;2.76;57.946
24868;BME280;12941;48.698;9.310;2024-01-15T01:30:40;96844;;;2.77;57.979
24868;BME280;12941;48.698;9.310;2024-01-15T01:31:45;96841.5;;;2.77;57.989
24868;BME280;12941;48.698;9.310;2024-01-15T01:32:45;96849.8;;;2.79;57.992
24868;BME280;12941;48.698;9.310;2024-01-15T01:33:50;96840.7;;;2.75;58.051
24868;BME280;12941;48.698;9.310;2024-01-15T01:34:50;96849.90000000001;;;2.76;58.063
24868;BME280;12941;48.698;9.310;2024-01-15T01:35:50;96842.2;;;2.79;58.024
24868;BME280;12941;48.698;9.310;2024-01-15T01:36:55;96841.5;;;2.77;58.043
24868;BME280;12941;48.698;9.310;2024-01-15T01:38:00;96837.3;;;2.76;58.095
24868;BME280;12941;48.698;9.310;2024-01-15T01:39:05;96849.2;;;2.74;58.197
24868;BME280;12941;48.698;9.310;2024-01-15T01:40:05;96841.8;;;2.69;58.276
24868;BME280;12941;48.698;9.310;2024-01-15T01:41:11;96836.7;;;2.69;58.34
24868;BME280;12941;48.698;9.310;2024-01-15T01:42:15;96839.20000000001;;;2.71;58.385
24868;BME280;12941;48.698;9.310;2024-01-15T01:43:15;96834;;;2.74;58.409
24868;BME280;12941;48.698;9.310;2024-01-15T01:44:15;96833.8;;;2.79;58.404
24868;BME280;12941;48.698;9.310;2024-01-15T01:45:15;96832.2;;;2.76;58.423
24868;BME280;12941;48.698;9.310;2024-01-15T01:46:15;96832.3;;;2.75;58.505
24868;BME280;12941;48.698;9.310;2024-01-15T01:47:20;96835.1;;;2.68;58.646
24868;BME280;12941;48.698;9.310;2024-01-15T01:48:25;96835.1;;;2.67;58.728
24868;BME280;12941;48.698;9.310;2024-01-15T01:49:30;96836.8;;;2.66;58.833
24868;BME280;12941;48.698;9.310;2024-01-15T01:50:30;96841.09999999999;;;2.64;58.904
24868;BME280;12941;48.698;9.310;2024-01-15T01:51:35;96839.70000000001;;;2.59;59.034
24868;BME280;12941;48.698;9.310;2024-01-15T01:52:35;96836.90000000001;;;2.63;59.062
24868;BME280;12941;48.698;9.310;2024-01-15T01:53:35;96836.5;;;2.54;59.217
24868;BME280;12941;48.698;9.310;2024-01-15T01:54:35;96833;;;2.56;59.316
24868;BME280;12941;48.698;9.310;2024-01-15T01:55:40;96832.3;;;2.54;59.482
24868;BME280;12941;48.698;9.310;2024-01-15T01:56:40;96834;;;2.54;59.523
24868;BME280;12941;48.698;9.310;2024-01-15T01:57:40;96839.9;;;2.53;59.575
24868;BME280;12941;48.698;9.310;2024-01-15T01:58:45;96833.6;;;2.43;59.751
24868;BME280;12941;48.698;9.310;2024-01-15T01:59:45;96841.9;;;2.45;59.849
24868;BME280;12941;48.698;9.310;2024-01-15T02:00:45;96840.5;;;2.38;59.978
24868;BME280;12941;48.698;9.310;2024-01-15T02:01:50;96839.5;;;2.42;60.109
24868;BME280;12941;48.698;9.310;2024-01-15T02:02:50;96840.4;;;2.41;60.108
24868;BME280;12941;48.698;9.310;2024-01-15T02:03:51;96837;;;2.42;60.067
24868;BME280;12941;48.698;9.310;2024-01-15T02:04:55;96841.2;;;2.43;60.121
24868;BME280;12941;48.698;9.310;2024-01-15T02:05:56;96830.3;;;2.41;60.129
24868;BME280;12941;48.698;9.310;2024-01-15T02:07:01;96831.1;;;2.41;60.247
24868;BME280;12941;48.698;9.310;2024-01-15T02:08:00;96834.6;;;2.39;60.222
24868;BME280;12941;48.698;9.310;2024-01-15T02:09:01;96827.8;;;2.39;60.286
24868;BME280;12941;48.698;9.310;2024-01-15T02:10:05;96828.7;;;2.36;60.441
24868;BME280;12941;48.698;9.310;2024-01-15T02:11:05;96827.9;;;2.36;60.514
24868;BME280;12941;48.698;9.310;2024-01-15T02:12:10;96827;;;2.37;60.61
24868;BME280;12941;48.698;9.310;2024-01-15T02:13:10;96830.4;;;2.38;60.611
24868;BME280;12941;48.698;9.310;2024-01-15T02:14:11;96830.4;;;2.38;60.559
24868;BME280;12941;48.698;9.310;2024-01-15T02:15:11;96828.7;;;2.36;60.558
24868;BME280;12941;48.698;9.310;2024-01-15T02:16:15;96828.59999999999;;;2.4;60.572
24868;BME280;12941;48.698;9.310;2024-01-15T02:17:15;96830.3;;;2.41;60.531
24868;BME280;12941;48.698;9.310;2024-01-15T02:18:21;96828.59999999999;;;2.4;60.54
24868;BME280;12941;48.698;9.310;2024-01-15T02:19:21;96831;;;2.43;60.544
24868;BME280;12941;48.698;9.310;2024-01-15T02:20:21;96826.8;;;2.45;60.388
24868;BME280;12941;48.698;9.310;2024-01-15T02:21:20;96825;;;2.47;60.443
24868;BME280;12941;48.698;9.310;2024-01-15T02:22:25;96819.1;;;2.46;60.476
24868;BME280;12941;48.698;9.310;2024-01-15T02:23:31;96823.2;;;2.49;60.427
24868;BME280;12941;48.698;9.310;2024-01-15T02:24:30;96821.7;;;2.45;60.42
24868;BME280;12941;48.698;9.310;2024-01-15T02:25:30;96821.7;;;2.45;60.483
24868;BME280;12941;48.698;9.310;2024-01-15T02:26:35;96816.5;;;2.48;60.468
24868;BME280;12941;48.698;9.310;2024-01-15T02:27:41;96820.8;;;2.47;60.477
24868;BME280;12941;48.698;9.310;2024-01-15T02:28:45;96823.29999999999;;;2.47;60.562
24868;BME280;12941;48.698;9.310;2024-01-15T02:29:45;96821.6;;;2.48;60.563
24868;BME280;12941;48.698;9.310;2024-01-15T02:30:45;96821.8;;;2.42;60.627
24868;BME280;12941;48.698;9.310;2024-01-15T02:31:45;96816.6;;;2.45;60.642
24868;BME280;12941;48.698;9.310;2024-01-15T02:32:50;96815.7;;;2.46;60.634
24868;BME280;12941;48.698;9.310;2024-01-15T02:33:51;96826;;;2.43;60.703
24868;BME280;12941;48.698;9.310;2024-01-15T02:34:55;96820.1;;;2.42;60.787
24868;BME280;12941;48.698;9.310;2024-01-15T02:36:00;96822.6;;;2.42;60.882
24868;BME280;12941;48.698;9.310;2024-01-15T02:37:01;96823.5;;;2.43;60.945
24868;BME280;12941;48.698;9.310;2024-01-15T02:38:01;96816.6;;;2.45;60.98
24868;BME280;12941;48.698;9.310;2024-01-15T02:39:01;96830.2;;;2.44;61.001
24868;BME280;12941;48.698;9.310;2024-01-15T02:40:05;96825;;;2.47;61.025
24868;BME280;12941;48.698;9.310;2024-01-15T02:41:05;96825.2;;;2.41;60.996
24868;BME280;12941;48.698;9.310;2024-01-15T02:42:11;96826;;;2.43;61.125
24868;BME280;12941;48.698;9.310;2024-01-15T02:43:15;96828.3;;;2.47;61.164
24868;BME280;12941;48.698;9.310;2024-01-15T02:44:21;96821.7;;;2.45;61.224
24868;BME280;12941;48.698;9.310;2024-01-15T02:45:25;96813.5;;;2.4;61.206
24868;BME280;12941;48.698;9.310;2024-01-15T02:46:25;96820.9;;;2.44;61.224
24868;BME280;12941;48.698;9.310;2024-01-15T02:47:31;96816.7;;;2.42;61.346
24868;BME280;12941;48.698;9.310;2024-01-15T02:48:35;96825.8;;;2.47;61.27
24868;BME280;12941;48.698;9.310;2024-01-15T02:49:35;96819;;;2.49;61.166
24868;BME280;12941;48.698;9.310;2024-01-15T02:50:35;96819;;;2.49;61.135
24868;BME280;12941;48.698;9.310;2024-01-15T02:51:41;96825.7;;;2.5;61.116
24868;BME280;12941;48.698;9.310;2024-01-15T02:52:41;96818.2;;;2.49;61.177
24868;BME280;12941;48.698;9.310;2024-01-15T02:53:45;96824.90000000001;;;2.48;61.24
24868;BME280;12941;48.698;9.310;2024-01-15T02:54:51;96824;;;2.49;61.293
24868;BME280;12941;48.698;9.310;2024-01-15T02:55:51;96825.59999999999;;;2.52;61.329
24868;BME280;12941;48.698;9.310;2024-01-15T02:56:55;96824;;;2.51;61.359
24868;BME280;12941;48.698;9.310;2024-01-15T02:58:01;96813.9;;;2.51;61.328
24868;BME280;12941;48.698;9.310;2024-01-15T02:59:05;96818.1;;;2.5;61.169
24868;BME280;12941;48.698;9.310;2024-01-15T03:00:06;96817.9;;;2.55;61.155
24868;BME280;12941;48.698;9.310;2024-01-15T03:01:11;96816.2;;;2.57;61.041
24868;BME280;12941;48.698;9.310;2024-01-15T03:02:15;96816;;;2.6;60.929
24868;BME280;12941;48.698;9.310;2024-01-15T03:03:15;96816;;;2.6;60.876
24868;BME280;12941;48.698;9.310;2024-01-15T03:04:21;96815.9;;;2.63;60.774
24868;BME280;12941;48.698;9.310;2024-01-15T03:05:21;96815.8;;;2.66;60.683
24868;BME280;12941;48.698;9.310;2024-01-15T03:06:25;96809.1;;;2.65;60.555
24868;BME280;12941;48.698;9.310;2024-01-15T03:07:26;96814;;;2.68;60.517
24868;BME280;12941;48.698;9.310;2024-01-15T03:08:25;96808.90000000001;;;2.68;60.411
24868;BME280;12941;48.698;9.310;2024-01-15T03:09:25;96805.5;;;2.69;60.382
24868;BME280;12941;48.698;9.310;2024-01-15T03:10:31;96802.20000000001;;;2.67;60.42
24868;BME280;12941;48.698;9.310;2024-01-15T03:11:36;96802.20000000001;;;2.67;60.389
24868;BME280;12941;48.698;9.310;2024-01-15T03:12:36;96802.20000000001;;;2.67;60.389
24868;BME280;12941;48.698;9.310;2024-01-15T03:13:41;96791.5;;;2.62;60.477
24868;BME280;12941;48.698;9.310;2024-01-15T03:14:41;96794.8;;;2.64;60.438
24868;BME280;12941;48.698;9.310;2024-01-15T03:15:42;96802.20000000001;;;2.67;60.398
24868;BME280;12941;48.698;9.310;2024-01-15T03:16:45;96807;;;2.73;60.312
24868;BME280;12941;48.698;9.310;2024-01-15T03:17:45;96804.3;;;2.79;60.141
24868;BME280;12941;48.698;9.310;2024-01-15T03:18:45;96799.1;;;2.82;59.967
24868;BME280;12941;48.698;9.310;2024-01-15T03:19:46;96806.6;;;2.85;59.886
24868;BME280;12941;48.698;9.310;2024-01-15T03:20:51;96797.2;;;2.87;59.771
24868;BME280;12941;48.698;9.310;2024-01-15T03:21:51;96795.4;;;2.89;59.753
24868;BME280;12941;48.698;9.310;2024-01-15T03:22:55;96803.09999999999;;;2.86;59.823
24868;BME280;12941;48.698;9.310;2024-01-15T03:23:56;96796.6;;;2.82;59.924
24868;BME280;12941;48.698;9.310;2024-01-15T03:25:01;96798.29999999999;;;2.8;60.08
24868;BME280;12941;48.698;9.310;2024-01-15T03:26:05;96795.7;;;2.82;60.071
24868;BME280;12941;48.698;9.310;2024-01-15T03:27:05;96796.6;;;2.82;60.072
24868;BME280;12941;48.698;9.310;2024-01-15T03:28:05;96792.3;;;2.84;60.075
24868;BME280;12941;48.698;9.310;2024-01-15T03:29:05;96795.6;;;2.85;60.107
24868;BME280;12941;48.698;9.310;2024-01-15T03:30:11;96791.4;;;2.85;60.118
24868;BME280;12941;48.698;9.310;2024-01-15T03:31:11;96782;;;2.87;60.152
24868;BME280;12941;48.698;9.310;2024-01-15T03:32:16;96790.4;;;2.88;60.09
24868;BME280;12941;48.698;9.310;2024-01-15T03:33:16;96782.9;;;2.86;60.13
24868;BME280;12941;48.698;9.310;2024-01-15T03:34:21;96784.5;;;2.89;60.113
24868;BME280;12941;48.698;9.310;2024-01-15T03:35:26;96786.1;;;2.91;60.053
24868;BME280;12941;48.698;9.310;2024-01-15T03:36:26;96779.5;;;2.87;60.185
24868;BME280;12941;48.698;9.310;2024-01-15T03:37:31;96783.7;;;2.88;60.186
24868;BME280;12941;48.698;9.310;2024-01-15T03:38:31;96779.5;;;2.87;60.217
24868;BME280;12941;48.698;9.310;2024-01-15T03:39:36;96771.6;;;2.73;60.408
24868;BME280;12941;48.698;9.310;2024-01-15T03:40:36;96778.3;;;2.76;60.613
24868;BME280;12941;48.698;9.310;2024-01-15T03:41:36;96775.9;;;2.71;60.723
24868;BME280;12941;48.698;9.310;2024-01-15T03:42:36;96778.5;;;2.71;60.86
24868;BME280;12941;48.698;9.310;2024-01-15T03:43:36;96786.90000000001;;;2.7;60.879
24868;BME280;12941;48.698;9.310;2024-01-15T03:44:41;96788.5;;;2.73;60.883
24868;BME280;12941;48.698;9.310;2024-01-15T03:45:41;96779.3;;;2.72;60.924
24868;BME280;12941;48.698;9.310;2024-01-15T03:46:46;96779.2;;;2.75;60.896
24868;BME280;12941;48.698;9.310;2024-01-15T03:47:51;96771.6;;;2.73;60.979
24868;BME280;12941;48.698;9.310;2024-01-15T03:48:52;96784.3;;;2.73;60.958
24868;BME280;12941;48.698;9.310;2024-01-15T03:49:56;96771.6;;;2.73;60.937
24868;BME280;12941;48.698;9.310;2024-01-15T03:50:56;96781.6;;;2.76;60.983
24868;BME280;12941;48.698;9.310;2024-01-15T03:51:56;96772.40000000001;;;2.75;60.939
24868;BME280;12941;48.698;9.310;2024-01-15T03:52:56;96776.59999999999;;;2.76;60.941
24868;BME280;12941;48.698;9.310;2024-01-15T03:53:56;96771.5;;;2.76;60.951
24868;BME280;12941;48.698;9.310;2024-01-15T03:55:01;96773.29999999999;;;2.74;60.991
24868;BME280;12941;48.698;9.310;2024-01-15T03:56:01;96774.1;;;2.75;61.065
24868;BME280;12941;48.698;9.310;2024-01-15T03:57:01;96771.7;;;2.72;61.114
24868;BME280;12941;48.698;9.310;2024-01-15T03:58:06;96775.9;;;2.71;61.125
24868;BME280;12941;48.698;9.310;2024-01-15T03:59:06;96778.5;;;2.71;61.22
24868;BME280;12941;48.698;9.310;2024-01-15T04:00:11;96781.8;;;2.72;61.252
24868;BME280;12941;48.698;9.310;2024-01-15T04:01:16;96771.6;;;2.73;61.317
24868;BME280;12941;48.698;9.310;2024-01-15T04:02:16;96778.5;;;2.71;61.305
24868;BME280;12941;48.698;9.310;2024-01-15T04:03:16;96773.5;;;2.68;61.415
24868;BME280;12941;48.698;9.310;2024-01-15T04:04:21;96765;;;2.69;61.45
24868;BME280;12941;48.698;9.310;2024-01-15T04:05:21;96770;;;2.72;61.454
24868;BME280;12941;48.698;9.310;2024-01-15T04:06:26;96767.6;;;2.69;61.492
24868;BME280;12941;48.698;9.310;2024-01-15T04:07:26;96767.5;;;2.7;61.493
24868;BME280;12941;48.698;9.310;2024-01-15T04:08:26;96763.3;;;2.71;61.526
24868;BME280;12941;48.698;9.310;2024-01-15T04:09:31;96762.40000000001;;;2.72;61.549
24868;BME280;12941;48.698;9.310;2024-01-15T04:10:31;96760.7;;;2.71;61.548
24868;BME280;12941;48.698;9.310;2024-01-15T04:11:36;96749.7;;;2.72;61.549
24868;BME280;12941;48.698;9.310;2024-01-15T04:12:41;96759;;;2.72;61.559
24868;BME280;12941;48.698;9.310;2024-01-15T04:13:46;96755.6;;;2.73;61.518
24868;BME280;12941;48.698;9.310;2024-01-15T04:14:51;96758.1;;;2.74;61.446
24868;BME280;12941;48.698;9.310;2024-01-15T04:15:56;96758;;;2.77;61.397
24868;BME280;12941;48.698;9.310;2024-01-15T04:17:01;96752.8;;;2.8;61.35
24868;BME280;12941;48.698;9.310;2024-01-15T04:18:06;96750.09999999999;;;2.83;61.268
24868;BME280;12941;48.698;9.310;2024-01-15T04:19:06;96754.4;;;2.81;61.255
24868;BME280;12941;48.698;9.310;2024-01-15T04:20:11;96756.9;;;2.83;61.3
24868;BME280;12941;48.698;9.310;2024-01-15T04:21:11;96751.9;;;2.81;61.297
24868;BME280;12941;48.698;9.310;2024-01-15T04:22:16;96752;;;2.8;61.412
24868;BME280;12941;48.698;9.310;2024-01-15T04:23:21;96752.8;;;2.8;61.402
24868;BME280;12941;48.698;9.310;2024-01-15T04:24:26;96750.40000000001;;;2.77;61.397
24868;BME280;12941;48.698;9.310;2024-01-15T04:25:31;96756.3;;;2.76;61.522
24868;BME280;12941;48.698;9.310;2024-01-15T04:26:31;96752.09999999999;;;2.75;61.563
24868;BME280;12941;48.698;9.310;2024-01-15T04:27:36;96747;;;2.77;61.544
24868;BME280;12941;48.698;9.310;2024-01-15T04:28:36;96752.3;;;2.72;61.655
24868;BME280;12941;48.698;9.310;2024-01-15T04:29:37;96754.7;;;2.75;61.712
24868;BME280;12941;48.698;9.310;2024-01-15T04:30:41;96756.3;;;2.76;61.702
24868;BME280;12941;48.698;9.310;2024-01-15T04:31:46;96757.5;;;2.69;61.979
24868;BME280;12941;48.698;9.310;2024-01-15T04:32:51;96757.3;;;2.72;62.057
24868;BME280;12941;48.698;9.310;2024-01-15T04:33:51;96748.1;;;2.71;62.256
24868;BME280;12941;48.698;9.310;2024-01-15T04:34:56;96745.6;;;2.69;62.349
24868;BME280;12941;48.698;9.310;2024-01-15T04:36:01;96755.7;;;2.69;62.423
24868;BME280;12941;48.698;9.310;2024-01-15T04:37:01;96752.5;;;2.66;62.692
24868;BME280;12941;48.698;9.310;2024-01-15T04:38:01;96749.2;;;2.64;62.784
24868;BME280;12941;48.698;9.310;2024-01-15T04:39:06;96748.29999999999;;;2.65;62.923
24868;BME280;12941;48.698;9.310;2024-01-15T04:40:06;96751.8;;;2.64;63.069
24868;BME280;12941;48.698;9.310;2024-01-15T04:41:11;96742.6;;;2.61;63.162
24868;BME280;12941;48.698;9.310;2024-01-15T04:42:11;96745.1;;;2.63;63.354
24868;BME280;12941;48.698;9.310;2024-01-15T04:43:16;96751.8;;;2.64;63.334
24868;BME280;12941;48.698;9.310;2024-01-15T04:44:16;96745.9;;;2.63;63.376
24868;BME280;12941;48.698;9.310;2024-01-15T04:45:21;96745.1;;;2.63;63.491
24868;BME280;12941;48.698;9.310;2024-01-15T04:46:21;96745.2;;;2.6;63.624
24868;BME280;12941;48.698;9.310;2024-01-15T04:47:21;96741.8;;;2.61;63.563
24868;BME280;12941;48.698;9.310;2024-01-15T04:48:26;96743.4;;;2.62;63.638
24868;BME280;12941;48.698;9.310;2024-01-15T04:49:26;96735.1;;;2.6;63.72
24868;BME280;12941;48.698;9.310;2024-01-15T04:50:26;96746.1;;;2.59;63.75
24868;BME280;12941;48.698;9.310;2024-01-15T04:51:31;96746.8;;;2.61;63.752
24868;BME280;12941;48.698;9.310;2024-01-15T04:52:31;96747.6;;;2.63;63.66
24868;BME280;12941;48.698;9.310;2024-01-15T04:53:31;96750.9;;;2.65;63.578
24868;BME280;12941;48.698;9.310;2024-01-15T04:54:31;96744.2;;;2.64;63.556
24868;BME280;12941;48.698;9.310;2024-01-15T04:55:31;96754.2;;;2.67;63.507
24868;BME280;12941;48.698;9.310;2024-01-15T04:56:36;96752.59999999999;;;2.63;63.649
24868;BME280;12941;48.698;9.310;2024-01-15T04:57:41;96753.5;;;2.63;63.619
24868;BME280;12941;48.698;9.310;2024-01-15T04:58:46;96758.3;;;2.68;63.456
24868;BME280;12941;48.698;9.310;2024-01-15T04:59:46;96753.3;;;2.68;63.52
24868;BME280;12941;48.698;9.310;2024-01-15T05:00:51;96746.5;;;2.7;63.416
24868;BME280;12941;48.698;9.310;2024-01-15T05:01:51;96746.6;;;2.67;63.603
24868;BME280;12941;48.698;9.310;2024-01-15T05:02:51;96735.90000000001;;;2.6;63.782
24868;BME280;12941;48.698;9.310;2024-01-15T05:03:51;96741.9;;;2.58;63.927
24868;BME280;12941;48.698;9.310;2024-01-15T05:04:56;96740.3;;;2.57;64.032
24868;BME280;12941;48.698;9.310;2024-01-15T05:06:01;96735.29999999999;;;2.54;64.079
24868;BME280;12941;48.698;9.310;2024-01-15T05:07:06;96738.8;;;2.53;64.184
24868;BME280;12941;48.698;9.310;2024-01-15T05:08:06;96737.90000000001;;;2.52;64.342
24868;BME280;12941;48.698;9.310;2024-01-15T05:09:11;96747.2;;;2.52;64.403
24868;BME280;12941;48.698;9.310;2024-01-15T05:10:11;96749.8;;;2.5;64.466
24868;BME280;12941;48.698;9.310;2024-01-15T05:11:11;96759.2;;;2.47;64.543
24868;BME280;12941;48.698;9.310;2024-01-15T05:12:11;96754.9;;;2.5;64.424
24868;BME280;12941;48.698;9.310;2024-01-15T05:13:11;96755.7;;;2.51;64.529
24868;BME280;12941;48.698;9.310;2024-01-15T05:14:11;96756.3;;;2.56;64.505
24868;BME280;12941;48.698;9.310;2024-01-15T05:15:11;96754.5;;;2.59;64.448
24868;BME280;12941;48.698;9.310;2024-01-15T05:16:16;96746.1;;;2.59;64.447
24868;BME280;12941;48.698;9.310;2024-01-15T05:17:16;96757.2;;;2.55;64.61
24868;BME280;12941;48.698;9.310;2024-01-15T05:18:21;96756.4;;;2.54;64.661
24868;BME280;12941;48.698;9.310;2024-01-15T05:19:21;96752.09999999999;;;2.56;64.664
24868;BME280;12941;48.698;9.310;2024-01-15T05:20:21;96754.6;;;2.56;64.696
24868;BME280;12941;48.698;9.310;2024-01-15T05:21:26;96756.2;;;2.59;64.732
24868;BME280;12941;48.698;9.310;2024-01-15T05:22:26;96762.3;;;2.53;64.986
24868;BME280;12941;48.698;9.310;2024-01-15T05:23:31;96759.1;;;2.5;64.929
24868;BME280;12941;48.698;9.310;2024-01-15T05:24:36;96754.2;;;2.47;64.902
24868;BME280;12941;48.698;9.310;2024-01-15T05:25:41;96743.9;;;2.5;65.034
24868;BME280;12941;48.698;9.310;2024-01-15T05:26:46;96744.9;;;2.46;65.208
24868;BME280;12941;48.698;9.310;2024-01-15T05:27:51;96739.09999999999;;;2.44;65.321
24868;BME280;12941;48.698;9.310;2024-01-15T05:28:51;96726.5;;;2.44;65.501
24868;BME280;12941;48.698;9.310;2024-01-15T05:29:51;96735.2;;;2.36;65.743
24868;BME280;12941;48.698;9.310;2024-01-15T05:30:51;96729.5;;;2.31;65.957